Time;durP1;ratioP1;P1;durP2;ratioP2;P2;SDS_P1;SDS_P2;PMS_P1;PMS_P2;Temp;Humidity;BMP_temperature;BMP_pressure;BME280_temperature;BME280_humidity;BME280_pressure;Samples;Min_cycle;Max_cycle;Signal;HPM_P1;HPM_P2
2021/10/03 00:02:21;;;;;;;5.45;2.72;;;;;;;;;;5044031;28;20053;-86
2021/10/03 00:04:49;;;;;;;5.68;3.08;;;;;;;;;;5044664;28;20053;-86
2021/10/03 00:07:19;;;;;;;6.82;3.10;;;;;;;;;;5042781;28;20084;-86
2021/10/03 00:09:50;;;;;;;4.18;2.70;;;;;;;;;;5044654;28;20049;-86
2021/10/03 00:12:18;;;;;;;3.70;2.42;;;;;;;;;;5041555;28;20053;-85
2021/10/03 00:14:45;;;;;;;5.97;2.92;;;;;;;;;;5044926;28;20053;-85
2021/10/03 00:17:12;;;;;;;5.97;2.83;;;;;;;;;;5044590;28;20049;-85
2021/10/03 00:19:42;;;;;;;5.53;3.10;;;;;;;;;;5043957;28;20045;-85
2021/10/03 00:22:10;;;;;;;5.20;2.85;;;;;;;;;;5050485;28;20057;-85
2021/10/03 00:24:37;;;;;;;5.90;2.60;;;;;;;;;;5054470;28;20096;-85
2021/10/03 00:27:03;;;;;;;4.80;3.13;;;;;;;;;;5047661;28;20125;-85
2021/10/03 00:29:31;;;;;;;6.13;2.92;;;;;;;;;;5046183;28;20057;-85
2021/10/03 00:31:58;;;;;;;4.15;2.92;;;;;;;;;;5043784;28;20049;-85
2021/10/03 00:34:24;;;;;;;7.03;2.70;;;;;;;;;;5045187;28;20049;-85
2021/10/03 00:36:54;;;;;;;8.18;3.15;;;;;;;;;;5045182;28;20057;-85
2021/10/03 00:39:21;;;;;;;6.38;2.63;;;;;;;;;;5038298;28;20053;-85
2021/10/03 00:41:48;;;;;;;5.13;3.28;;;;;;;;;;5046232;28;20050;-86
2021/10/03 00:44:24;;;;;;;4.05;2.83;;;;;;;;;;5050141;28;20072;-85
2021/10/03 00:46:50;;;;;;;3.88;2.38;;;;;;;;;;5049753;28;20049;-85
2021/10/03 00:49:17;;;;;;;6.15;2.42;;;;;;;;;;5032657;28;20060;-85
2021/10/03 00:51:43;;;;;;;4.55;2.90;;;;;;;;;;5040598;28;20045;-85
2021/10/03 00:54:13;;;;;;;6.07;3.05;;;;;;;;;;5053195;28;20113;-85
2021/10/03 00:56:39;;;;;;;5.70;3.10;;;;;;;;;;5053276;28;20104;-85
2021/10/03 00:59:06;;;;;;;3.88;2.60;;;;;;;;;;5060592;28;20045;-84
2021/10/03 01:01:45;;;;;;;6.47;3.10;;;;;;;;;;5044132;28;20061;-85
2021/10/03 01:04:12;;;;;;;5.15;2.60;;;;;;;;;;5049422;28;20176;-85
2021/10/03 01:06:41;;;;;;;5.50;2.88;;;;;;;;;;5052348;28;20048;-84
2021/10/03 01:09:08;;;;;;;4.60;2.70;;;;;;;;;;5043699;28;20045;-85
2021/10/03 01:11:35;;;;;;;4.82;2.50;;;;;;;;;;5043968;28;20045;-84
2021/10/03 01:14:01;;;;;;;4.20;2.78;;;;;;;;;;5043133;28;20059;-85
2021/10/03 01:16:28;;;;;;;4.97;2.90;;;;;;;;;;5043127;28;20049;-84
2021/10/03 01:18:58;;;;;;;7.47;3.05;;;;;;;;;;5042505;28;20152;-85
2021/10/03 01:21:25;;;;;;;3.08;2.28;;;;;;;;;;5042638;28;20353;-84
2021/10/03 01:23:53;;;;;;;4.40;2.63;;;;;;;;;;5041296;28;20041;-84
2021/10/03 01:26:23;;;;;;;6.15;3.08;;;;;;;;;;5042540;28;20177;-84
2021/10/03 01:28:53;;;;;;;4.68;2.28;;;;;;;;;;5041136;28;20049;-84
2021/10/03 01:31:20;;;;;;;4.70;2.67;;;;;;;;;;5041389;28;20050;-84
2021/10/03 01:33:48;;;;;;;6.97;2.60;;;;;;;;;;5043361;28;20116;-84
2021/10/03 01:36:15;;;;;;;3.60;2.65;;;;;;;;;;5041609;28;20049;-84
2021/10/03 01:38:42;;;;;;;8.52;2.50;;;;;;;;;;5043231;28;20061;-84
2021/10/03 01:41:24;;;;;;;7.88;2.90;;;;;;;;;;5043874;28;20060;-84
2021/10/03 01:43:51;;;;;;;6.78;2.45;;;;;;;;;;5043369;28;20049;-83
2021/10/03 01:46:17;;;;;;;3.25;2.20;;;;;;;;;;5045281;28;20053;-83
2021/10/03 01:48:46;;;;;;;5.65;2.47;;;;;;;;;;5044925;28;20425;-84
2021/10/03 01:51:20;;;;;;;3.72;2.40;;;;;;;;;;5041806;28;20156;-84
2021/10/03 01:53:49;;;;;;;4.15;2.47;;;;;;;;;;5043083;28;20049;-86
2021/10/03 01:56:16;;;;;;;5.82;2.75;;;;;;;;;;5042346;28;20041;-84
2021/10/03 01:58:59;;;;;;;5.63;2.60;;;;;;;;;;5044525;28;20053;-84
2021/10/03 02:01:29;;;;;;;4.05;2.38;;;;;;;;;;5044885;28;20057;-83
2021/10/03 02:03:56;;;;;;;3.38;2.28;;;;;;;;;;5043068;28;20108;-84
2021/10/03 02:06:41;;;;;;;3.97;2.50;;;;;;;;;;5043726;28;20054;-84
2021/10/03 02:09:09;;;;;;;4.05;2.65;;;;;;;;;;5044239;28;20356;-84
2021/10/03 02:11:39;;;;;;;4.40;2.67;;;;;;;;;;5042526;28;20045;-84
2021/10/03 02:14:05;;;;;;;4.50;2.20;;;;;;;;;;5043529;28;20054;-85
2021/10/03 02:16:32;;;;;;;5.00;2.60;;;;;;;;;;5027934;28;20050;-84
2021/10/03 02:18:59;;;;;;;4.50;2.70;;;;;;;;;;5022019;28;20061;-84
2021/10/03 02:21:27;;;;;;;3.35;2.30;;;;;;;;;;5022973;28;20060;-84
2021/10/03 02:23:54;;;;;;;4.45;2.88;;;;;;;;;;5026022;28;20354;-84
2021/10/03 02:26:24;;;;;;;6.43;3.10;;;;;;;;;;5026514;28;20053;-84
2021/10/03 02:28:50;;;;;;;6.95;2.10;;;;;;;;;;5028203;28;20077;-84
2021/10/03 02:31:17;;;;;;;6.07;2.40;;;;;;;;;;5025888;28;20334;-84
2021/10/03 02:33:54;;;;;;;4.47;2.90;;;;;;;;;;5025193;28;20049;-84
2021/10/03 02:36:21;;;;;;;3.67;2.28;;;;;;;;;;5026303;28;20050;-84
2021/10/03 02:38:48;;;;;;;4.57;2.38;;;;;;;;;;5026008;28;20411;-84
2021/10/03 02:41:15;;;;;;;4.82;2.65;;;;;;;;;;5026204;28;20125;-84
2021/10/03 02:43:44;;;;;;;8.13;2.97;;;;;;;;;;5027699;28;20331;-84
2021/10/03 02:46:11;;;;;;;4.18;2.58;;;;;;;;;;5030911;28;20045;-83
2021/10/03 02:48:50;;;;;;;6.97;2.75;;;;;;;;;;5045337;28;20052;-84
2021/10/03 02:51:18;;;;;;;3.83;2.83;;;;;;;;;;5046097;28;20049;-84
2021/10/03 02:53:47;;;;;;;4.57;2.60;;;;;;;;;;5045656;28;20045;-84
2021/10/03 02:56:15;;;;;;;7.30;3.00;;;;;;;;;;5045612;28;20049;-84
2021/10/03 02:58:41;;;;;;;3.25;2.28;;;;;;;;;;5045433;28;20125;-84
2021/10/03 03:01:08;;;;;;;8.52;2.88;;;;;;;;;;5047010;28;20428;-84
2021/10/03 03:03:36;;;;;;;4.80;2.40;;;;;;;;;;5047510;28;20056;-84
2021/10/03 03:06:04;;;;;;;4.95;2.30;;;;;;;;;;5047706;28;20049;-84
2021/10/03 03:08:31;;;;;;;4.47;2.50;;;;;;;;;;5046714;28;20131;-84
2021/10/03 03:10:57;;;;;;;4.85;2.90;;;;;;;;;;5047949;28;20054;-84
2021/10/03 03:13:30;;;;;;;4.55;2.40;;;;;;;;;;5045752;28;20064;-84
2021/10/03 03:15:57;;;;;;;4.22;2.53;;;;;;;;;;5045765;28;20053;-84
2021/10/03 03:18:24;;;;;;;4.13;2.58;;;;;;;;;;5042610;28;20085;-84
2021/10/03 03:20:50;;;;;;;4.80;2.72;;;;;;;;;;5041324;28;20049;-84
2021/10/03 03:23:17;;;;;;;10.45;2.72;;;;;;;;;;5042869;28;20087;-84
2021/10/03 03:25:44;;;;;;;4.25;2.47;;;;;;;;;;5053721;28;20100;-84
2021/10/03 03:28:35;;;;;;;4.38;2.95;;;;;;;;;;5055725;28;20132;-84
2021/10/03 03:31:02;;;;;;;3.60;2.50;;;;;;;;;;5043336;28;20414;-84
2021/10/03 03:33:28;;;;;;;5.82;3.10;;;;;;;;;;5043538;28;20084;-84
2021/10/03 03:36:01;;;;;;;5.18;2.60;;;;;;;;;;5044475;28;20060;-85
2021/10/03 03:38:33;;;;;;;4.18;2.42;;;;;;;;;;5043717;28;20124;-84
2021/10/03 03:41:00;;;;;;;4.43;2.63;;;;;;;;;;5043488;28;20057;-84
2021/10/03 03:43:55;;;;;;;3.95;2.50;;;;;;;;;;5043887;28;20300;-84
2021/10/03 03:46:21;;;;;;;3.63;2.50;;;;;;;;;;5044068;28;20060;-84
2021/10/03 03:48:48;;;;;;;4.70;2.25;;;;;;;;;;5042537;28;20077;-84
2021/10/03 03:51:15;;;;;;;6.47;2.40;;;;;;;;;;5045237;28;20053;-84
2021/10/03 03:53:41;;;;;;;4.93;2.22;;;;;;;;;;5044097;28;20060;-84
2021/10/03 03:56:10;;;;;;;8.63;2.72;;;;;;;;;;5044005;28;20311;-84
2021/10/03 03:58:39;;;;;;;5.93;2.20;;;;;;;;;;5044576;28;20053;-84
2021/10/03 04:01:06;;;;;;;2.97;2.15;;;;;;;;;;5042918;28;20050;-84
2021/10/03 04:03:32;;;;;;;3.42;2.30;;;;;;;;;;5045081;28;20050;-84
2021/10/03 04:05:59;;;;;;;3.95;2.25;;;;;;;;;;5045169;28;20049;-84
2021/10/03 04:08:29;;;;;;;6.68;2.30;;;;;;;;;;5056754;28;20045;-84
2021/10/03 04:10:55;;;;;;;7.88;2.15;;;;;;;;;;5055081;28;20037;-84
2021/10/03 04:13:22;;;;;;;8.63;2.28;;;;;;;;;;5048519;28;20072;-84
2021/10/03 04:15:49;;;;;;;8.07;2.13;;;;;;;;;;5043945;28;20064;-84
2021/10/03 04:18:15;;;;;;;6.55;2.40;;;;;;;;;;5049543;28;20051;-84
2021/10/03 04:20:42;;;;;;;3.53;2.33;;;;;;;;;;5055824;28;20046;-84
2021/10/03 04:23:10;;;;;;;5.45;2.40;;;;;;;;;;5050298;28;20064;-84
2021/10/03 04:25:37;;;;;;;6.55;2.20;;;;;;;;;;5046091;28;20375;-84
2021/10/03 04:28:04;;;;;;;4.50;2.08;;;;;;;;;;5045267;28;20053;-84
2021/10/03 04:30:31;;;;;;;5.88;2.35;;;;;;;;;;5045791;28;20245;-84
2021/10/03 04:32:57;;;;;;;2.95;1.70;;;;;;;;;;5046011;28;20049;-84
2021/10/03 04:35:24;;;;;;;5.72;2.53;;;;;;;;;;5047370;28;20053;-84
2021/10/03 04:37:57;;;;;;;3.63;2.33;;;;;;;;;;5044062;28;20046;-84
2021/10/03 04:40:23;;;;;;;3.13;2.00;;;;;;;;;;5046193;28;20088;-84
2021/10/03 04:42:50;;;;;;;3.75;2.08;;;;;;;;;;5045331;28;20049;-84
2021/10/03 04:45:23;;;;;;;4.55;2.20;;;;;;;;;;5042971;28;20056;-84
2021/10/03 04:47:49;;;;;;;2.88;2.00;;;;;;;;;;5043548;28;20081;-84
2021/10/03 04:50:16;;;;;;;5.60;2.50;;;;;;;;;;5044620;28;20068;-84
2021/10/03 04:52:43;;;;;;;3.70;2.33;;;;;;;;;;5044113;28;20053;-84
2021/10/03 04:55:10;;;;;;;3.65;2.20;;;;;;;;;;5044463;28;20061;-84
2021/10/03 04:57:37;;;;;;;5.18;2.47;;;;;;;;;;5046502;28;20076;-84
2021/10/03 05:00:05;;;;;;;3.40;1.83;;;;;;;;;;5043817;28;20080;-84
2021/10/03 05:02:31;;;;;;;3.95;2.40;;;;;;;;;;5043878;28;20057;-84
2021/10/03 05:05:01;;;;;;;3.10;2.20;;;;;;;;;;5043810;28;20376;-84
2021/10/03 05:07:28;;;;;;;6.05;2.13;;;;;;;;;;5046890;28;20045;-84
2021/10/03 05:09:55;;;;;;;4.07;2.42;;;;;;;;;;5061864;28;20110;-84
2021/10/03 05:15:49;;;;;;;7.13;2.85;;;;;;;;;;5065867;28;20031;-84
2021/10/03 05:18:16;;;;;;;3.17;2.42;;;;;;;;;;5064191;28;20056;-84
2021/10/03 05:20:44;;;;;;;3.03;2.10;;;;;;;;;;5063065;28;20081;-84
2021/10/03 05:23:12;;;;;;;3.45;2.53;;;;;;;;;;5063894;28;20059;-83
2021/10/03 05:25:39;;;;;;;2.50;2.03;;;;;;;;;;5062480;28;20044;-84
2021/10/03 05:28:05;;;;;;;5.32;2.30;;;;;;;;;;5062389;28;20059;-84
2021/10/03 05:30:32;;;;;;;4.28;2.28;;;;;;;;;;5062943;28;20146;-84
2021/10/03 05:32:59;;;;;;;6.82;2.85;;;;;;;;;;5063001;28;20048;-85
2021/10/03 05:35:25;;;;;;;6.68;2.55;;;;;;;;;;5061675;28;20053;-85
2021/10/03 05:37:52;;;;;;;4.35;2.75;;;;;;;;;;5066463;28;20045;-84
2021/10/03 05:40:22;;;;;;;3.05;2.33;;;;;;;;;;5065237;28;20040;-85
2021/10/03 05:42:48;;;;;;;3.72;2.60;;;;;;;;;;5066738;28;20249;-84
2021/10/03 05:45:15;;;;;;;5.90;2.33;;;;;;;;;;5067303;28;20112;-85
2021/10/03 05:47:45;;;;;;;4.65;2.80;;;;;;;;;;5061527;28;20060;-85
2021/10/03 05:50:12;;;;;;;3.20;2.38;;;;;;;;;;5060845;28;20076;-85
2021/10/03 05:52:38;;;;;;;4.05;2.35;;;;;;;;;;5060838;28;20049;-84
2021/10/03 05:55:05;;;;;;;5.82;2.22;;;;;;;;;;5062475;28;20430;-85
2021/10/03 05:57:54;;;;;;;5.35;2.45;;;;;;;;;;5066027;28;20132;-84
2021/10/03 06:00:21;;;;;;;3.03;2.15;;;;;;;;;;5070510;28;20055;-85
2021/10/03 06:02:47;;;;;;;6.32;2.38;;;;;;;;;;5070754;28;20338;-84
2021/10/03 06:05:17;;;;;;;3.72;2.38;;;;;;;;;;5054667;28;20369;-85
2021/10/03 06:07:44;;;;;;;6.05;2.17;;;;;;;;;;5046640;28;20111;-85
2021/10/03 06:10:11;;;;;;;2.97;2.45;;;;;;;;;;5045402;28;20058;-85
2021/10/03 06:12:43;;;;;;;3.70;2.35;;;;;;;;;;5047301;28;20065;-85
2021/10/03 06:15:10;;;;;;;2.50;2.10;;;;;;;;;;5044521;28;20054;-85
2021/10/03 06:17:37;;;;;;;3.53;2.55;;;;;;;;;;5044242;28;20045;-85
2021/10/03 06:20:04;;;;;;;3.80;2.88;;;;;;;;;;5046651;28;20208;-85
2021/10/03 06:22:31;;;;;;;5.85;2.97;;;;;;;;;;5045023;28;20114;-85
2021/10/03 06:24:57;;;;;;;4.10;2.70;;;;;;;;;;5043951;28;20521;-85
2021/10/03 06:27:31;;;;;;;4.47;2.88;;;;;;;;;;5046145;28;20318;-85
2021/10/03 06:29:58;;;;;;;6.85;2.67;;;;;;;;;;5052364;28;20049;-83
2021/10/03 06:32:24;;;;;;;5.90;2.95;;;;;;;;;;5056038;28;20050;-84
2021/10/03 06:34:51;;;;;;;7.13;3.10;;;;;;;;;;5045459;28;20049;-85
2021/10/03 06:37:18;;;;;;;4.57;2.80;;;;;;;;;;5044447;28;20060;-86
2021/10/03 06:39:46;;;;;;;5.50;3.00;;;;;;;;;;5043179;28;20107;-83
2021/10/03 06:42:13;;;;;;;3.55;2.42;;;;;;;;;;5043170;28;20057;-84
2021/10/03 06:44:41;;;;;;;6.13;3.25;;;;;;;;;;5044114;28;20053;-84
2021/10/03 06:47:11;;;;;;;3.72;2.60;;;;;;;;;;5044579;28;20055;-84
2021/10/03 06:49:39;;;;;;;7.45;3.10;;;;;;;;;;5043279;28;20136;-84
2021/10/03 06:52:12;;;;;;;6.88;3.15;;;;;;;;;;5041689;28;20289;-84
2021/10/03 06:54:38;;;;;;;4.78;3.28;;;;;;;;;;5041084;28;20158;-86
2021/10/03 06:57:05;;;;;;;7.78;3.65;;;;;;;;;;5044588;28;20050;-85
2021/10/03 06:59:35;;;;;;;7.53;3.50;;;;;;;;;;5045252;28;20076;-85
2021/10/03 07:02:05;;;;;;;7.55;3.30;;;;;;;;;;5044246;28;20212;-86
2021/10/03 07:04:32;;;;;;;5.13;3.17;;;;;;;;;;5042697;28;20088;-85
2021/10/03 07:06:59;;;;;;;5.45;3.10;;;;;;;;;;5042464;28;20052;-85
2021/10/03 07:09:26;;;;;;;7.68;3.72;;;;;;;;;;5041972;28;20046;-84
2021/10/03 07:11:54;;;;;;;7.13;3.70;;;;;;;;;;5041685;28;20075;-84
2021/10/03 07:14:21;;;;;;;6.25;3.58;;;;;;;;;;5041333;28;20061;-86
2021/10/03 07:16:48;;;;;;;5.55;3.53;;;;;;;;;;5041916;28;20046;-86
2021/10/03 07:19:15;;;;;;;9.55;4.03;;;;;;;;;;5046527;28;20057;-85
2021/10/03 07:21:42;;;;;;;6.10;4.07;;;;;;;;;;5066399;28;20232;-85
2021/10/03 07:24:13;;;;;;;7.10;3.95;;;;;;;;;;5073614;28;20053;-86
2021/10/03 07:26:41;;;;;;;6.63;4.13;;;;;;;;;;5069921;28;20231;-85
2021/10/03 07:29:08;;;;;;;5.10;3.83;;;;;;;;;;5043156;28;20108;-83
2021/10/03 07:31:38;;;;;;;10.02;4.60;;;;;;;;;;5041448;28;20058;-86
2021/10/03 07:34:04;;;;;;;5.72;3.80;;;;;;;;;;5051604;28;20041;-84
2021/10/03 07:36:31;;;;;;;9.15;4.30;;;;;;;;;;5051413;28;20057;-84
2021/10/03 07:39:05;;;;;;;7.00;3.97;;;;;;;;;;5041908;28;20061;-85
2021/10/03 07:41:32;;;;;;;6.45;3.88;;;;;;;;;;5042328;28;20045;-85
2021/10/03 07:43:58;;;;;;;8.88;4.30;;;;;;;;;;5040890;28;20185;-85
2021/10/03 07:46:37;;;;;;;6.15;3.53;;;;;;;;;;5044010;28;20061;-84
2021/10/03 07:49:04;;;;;;;5.82;3.80;;;;;;;;;;5041259;28;20111;-84
2021/10/03 07:51:31;;;;;;;6.78;4.07;;;;;;;;;;5040744;28;20060;-84
2021/10/03 07:54:14;;;;;;;9.43;4.85;;;;;;;;;;5043614;28;20335;-85
2021/10/03 07:56:40;;;;;;;6.57;4.10;;;;;;;;;;5040741;28;20105;-85
2021/10/03 07:59:08;;;;;;;6.90;4.35;;;;;;;;;;5042484;28;20097;-86
2021/10/03 08:01:44;;;;;;;7.75;3.83;;;;;;;;;;5040426;28;20084;-86
2021/10/03 08:04:11;;;;;;;6.97;4.22;;;;;;;;;;5041487;28;20264;-85
2021/10/03 08:06:38;;;;;;;7.07;4.25;;;;;;;;;;5040308;28;20059;-86
2021/10/03 08:09:05;;;;;;;6.50;3.85;;;;;;;;;;5040151;28;20057;-85
2021/10/03 08:11:32;;;;;;;6.18;4.03;;;;;;;;;;5038885;28;20067;-86
2021/10/03 08:13:58;;;;;;;6.72;4.10;;;;;;;;;;5034015;28;20107;-85
2021/10/03 08:16:30;;;;;;;13.48;4.85;;;;;;;;;;5033980;28;20080;-85
2021/10/03 08:18:58;;;;;;;6.90;4.22;;;;;;;;;;5033409;28;20046;-85
2021/10/03 08:21:26;;;;;;;7.75;4.57;;;;;;;;;;5035946;28;20089;-84
2021/10/03 08:23:57;;;;;;;11.18;4.55;;;;;;;;;;5035383;28;20105;-84
2021/10/03 08:26:24;;;;;;;9.43;4.50;;;;;;;;;;5027432;28;20046;-84
2021/10/03 08:28:51;;;;;;;7.15;4.65;;;;;;;;;;5023391;28;20436;-84
2021/10/03 08:31:17;;;;;;;7.63;4.63;;;;;;;;;;5017191;28;20050;-84
2021/10/03 08:34:03;;;;;;;8.32;4.95;;;;;;;;;;5016239;28;20229;-84
2021/10/03 08:36:30;;;;;;;8.25;5.03;;;;;;;;;;5033730;28;20145;-84
2021/10/03 08:39:00;;;;;;;8.55;4.78;;;;;;;;;;5016114;28;20069;-85
2021/10/03 08:41:26;;;;;;;8.85;4.75;;;;;;;;;;5013975;28;20053;-85
2021/10/03 08:43:53;;;;;;;7.63;4.55;;;;;;;;;;5030198;28;20298;-85
2021/10/03 08:46:27;;;;;;;11.80;5.07;;;;;;;;;;5033912;28;20076;-85
2021/10/03 08:48:55;;;;;;;8.13;5.00;;;;;;;;;;5032539;28;20424;-85
2021/10/03 08:51:26;;;;;;;14.82;5.40;;;;;;;;;;5019855;28;20054;-87
2021/10/03 08:53:52;;;;;;;8.40;5.18;;;;;;;;;;5012485;28;20457;-87
2021/10/03 08:56:21;;;;;;;9.82;5.10;;;;;;;;;;5031338;28;20136;-87
2021/10/03 08:58:48;;;;;;;8.60;5.18;;;;;;;;;;5032936;28;20041;-87
2021/10/03 09:01:14;;;;;;;10.02;4.88;;;;;;;;;;5030766;28;20153;-87
2021/10/03 09:03:49;;;;;;;7.70;4.97;;;;;;;;;;5030893;28;20045;-87
2021/10/03 09:06:22;;;;;;;9.60;5.25;;;;;;;;;;5030400;28;20300;-87
2021/10/03 09:08:57;;;;;;;7.32;4.88;;;;;;;;;;5029938;28;20308;-87
2021/10/03 09:11:28;;;;;;;8.88;5.43;;;;;;;;;;5030257;28;20057;-87
2021/10/03 09:13:55;;;;;;;9.60;5.70;;;;;;;;;;5031137;28;20049;-88
2021/10/03 09:16:32;;;;;;;7.22;5.03;;;;;;;;;;5029904;28;20441;-87
2021/10/03 09:19:12;;;;;;;7.10;4.85;;;;;;;;;;5030138;28;20618;-87
2021/10/03 09:21:40;;;;;;;11.00;5.28;;;;;;;;;;5029110;28;20147;-87
2021/10/03 09:24:15;;;;;;;6.93;4.50;;;;;;;;;;5029307;28;20049;-87
2021/10/03 09:26:57;;;;;;;6.05;4.40;;;;;;;;;;5028641;28;20278;-87
2021/10/03 09:29:25;;;;;;;8.18;4.63;;;;;;;;;;5026442;28;20080;-87
2021/10/03 09:32:11;;;;;;;9.40;4.90;;;;;;;;;;5028387;28;20153;-87
2021/10/03 09:34:38;;;;;;;7.75;5.00;;;;;;;;;;5037859;28;20045;-87
2021/10/03 09:37:35;;;;;;;6.93;4.88;;;;;;;;;;5062186;28;20107;-86
2021/10/03 09:40:12;;;;;;;8.15;4.18;;;;;;;;;;5035177;28;20104;-87
2021/10/03 09:42:40;;;;;;;7.75;4.28;;;;;;;;;;5027491;28;20261;-86
2021/10/03 09:45:13;;;;;;;6.88;4.40;;;;;;;;;;5041943;28;20115;-86
2021/10/03 09:47:44;;;;;;;10.18;4.47;;;;;;;;;;5027314;28;20155;-86
2021/10/03 09:50:15;;;;;;;6.82;4.07;;;;;;;;;;5026534;28;20053;-86
2021/10/03 09:52:43;;;;;;;6.68;4.25;;;;;;;;;;5028387;28;20111;-86
2021/10/03 09:55:17;;;;;;;5.30;4.22;;;;;;;;;;5028043;28;20103;-86
2021/10/03 09:57:47;;;;;;;6.57;4.00;;;;;;;;;;5027193;28;20071;-86
2021/10/03 10:00:15;;;;;;;6.22;3.83;;;;;;;;;;5028379;28;20345;-86
2021/10/03 10:02:46;;;;;;;6.95;4.50;;;;;;;;;;5029707;28;20050;-86
2021/10/03 10:05:20;;;;;;;8.38;4.25;;;;;;;;;;5030448;28;20113;-86
2021/10/03 10:07:47;;;;;;;5.60;4.03;;;;;;;;;;5033736;28;20176;-86
2021/10/03 10:10:14;;;;;;;9.27;3.88;;;;;;;;;;5047330;28;20064;-86
2021/10/03 10:12:54;;;;;;;6.45;3.83;;;;;;;;;;5042917;28;20079;-86
2021/10/03 10:15:22;;;;;;;7.03;4.63;;;;;;;;;;5031619;28;20058;-86
2021/10/03 10:17:50;;;;;;;6.03;3.92;;;;;;;;;;5014011;28;20050;-85
2021/10/03 10:20:27;;;;;;;6.65;4.38;;;;;;;;;;5032092;28;20056;-86
2021/10/03 10:22:55;;;;;;;6.40;4.13;;;;;;;;;;5044742;28;20084;-86
2021/10/03 10:25:45;;;;;;;7.68;4.90;;;;;;;;;;5030004;28;20045;-86
2021/10/03 10:28:16;;;;;;;7.00;3.80;;;;;;;;;;5029536;28;20128;-87
2021/10/03 10:31:03;;;;;;;6.45;3.92;;;;;;;;;;5029994;28;20072;-86
2021/10/03 10:33:48;;;;;;;9.02;4.10;;;;;;;;;;5029203;28;20209;-86
2021/10/03 10:36:17;;;;;;;6.03;3.57;;;;;;;;;;5012334;28;20084;-86
2021/10/03 10:39:03;;;;;;;6.00;4.07;;;;;;;;;;5008168;28;20046;-84
2021/10/03 10:41:31;;;;;;;9.52;3.97;;;;;;;;;;5024662;28;20224;-84
2021/10/03 10:43:58;;;;;;;5.70;3.92;;;;;;;;;;5033289;28;20045;-86
2021/10/03 10:46:43;;;;;;;9.15;4.13;;;;;;;;;;5029697;28;20195;-84
2021/10/03 10:49:24;;;;;;;8.70;4.30;;;;;;;;;;5032636;28;20049;-84
2021/10/03 10:52:29;;;;;;;5.78;4.00;;;;;;;;;;5034843;28;20053;-85
2021/10/03 10:55:04;;;;;;;5.93;4.00;;;;;;;;;;5035150;28;20053;-84
2021/10/03 10:57:32;;;;;;;5.97;3.83;;;;;;;;;;5034594;28;20059;-84
2021/10/03 11:00:24;;;;;;;4.53;3.67;;;;;;;;;;5030826;28;20050;-85
2021/10/03 11:02:51;;;;;;;7.25;3.70;;;;;;;;;;5038797;28;20088;-84
2021/10/03 11:05:43;;;;;;;5.90;4.00;;;;;;;;;;5041616;28;20071;-84
2021/10/03 11:08:14;;;;;;;4.70;3.63;;;;;;;;;;5035558;28;20132;-85
2021/10/03 11:13:38;;;;;;;6.28;3.83;;;;;;;;;;5037125;28;20056;-85
2021/10/03 11:16:22;;;;;;;5.32;4.30;;;;;;;;;;5037133;28;20405;-84
2021/10/03 11:18:49;;;;;;;8.90;3.97;;;;;;;;;;5036355;28;20115;-84
2021/10/03 11:21:19;;;;;;;5.93;3.97;;;;;;;;;;5036404;28;20122;-85
2021/10/03 11:23:47;;;;;;;5.28;4.03;;;;;;;;;;5038748;28;20241;-85
2021/10/03 11:26:14;;;;;;;11.63;4.85;;;;;;;;;;5041385;28;20146;-86
2021/10/03 11:28:52;;;;;;;6.07;3.80;;;;;;;;;;5044622;28;20057;-86
2021/10/03 11:31:50;;;;;;;7.20;4.40;;;;;;;;;;5044473;28;20045;-85
2021/10/03 11:34:35;;;;;;;8.02;4.35;;;;;;;;;;5037685;28;20091;-85
2021/10/03 11:37:24;;;;;;;5.72;4.18;;;;;;;;;;5017154;28;20252;-85
2021/10/03 11:39:55;;;;;;;12.95;4.18;;;;;;;;;;5013426;28;20320;-85
2021/10/03 11:42:31;;;;;;;6.50;3.78;;;;;;;;;;5015652;28;20045;-85
2021/10/03 11:45:10;;;;;;;8.35;3.75;;;;;;;;;;5022207;28;20108;-85
2021/10/03 11:47:38;;;;;;;7.32;4.18;;;;;;;;;;5020160;28;20049;-85
2021/10/03 11:50:05;;;;;;;10.07;3.75;;;;;;;;;;5021425;28;20146;-85
2021/10/03 11:52:35;;;;;;;5.13;3.70;;;;;;;;;;5041843;28;20179;-85
2021/10/03 11:55:09;;;;;;;4.85;3.38;;;;;;;;;;5038860;28;20298;-84
2021/10/03 11:57:37;;;;;;;9.60;3.92;;;;;;;;;;5039013;28;20049;-85
2021/10/03 12:00:30;;;;;;;7.03;3.70;;;;;;;;;;5020328;28;20124;-85
2021/10/03 12:03:07;;;;;;;4.50;3.72;;;;;;;;;;5038697;28;20065;-86
2021/10/03 12:05:34;;;;;;;5.60;3.58;;;;;;;;;;5038663;28;20045;-85
2021/10/03 12:08:05;;;;;;;5.30;3.25;;;;;;;;;;5038749;28;20049;-84
2021/10/03 12:10:36;;;;;;;8.60;3.55;;;;;;;;;;5037829;28;20057;-86
2021/10/03 12:13:20;;;;;;;5.53;3.58;;;;;;;;;;5040445;28;20072;-85
2021/10/03 12:15:48;;;;;;;7.60;3.30;;;;;;;;;;5040712;28;20129;-84
2021/10/03 12:18:24;;;;;;;4.97;2.83;;;;;;;;;;5037772;28;20229;-84
2021/10/03 12:21:00;;;;;;;5.28;3.45;;;;;;;;;;5037864;28;20057;-84
2021/10/03 12:23:46;;;;;;;5.40;3.33;;;;;;;;;;5036407;28;20094;-86
2021/10/03 12:26:17;;;;;;;;;;;;;;;;;;5039271;28;20600;-85
2021/10/03 12:28:53;;;;;;;6.50;2.80;;;;;;;;;;5038100;28;19989;-86
2021/10/03 12:31:41;;;;;;;5.30;3.42;;;;;;;;;;5040801;28;20049;-84
2021/10/03 12:34:14;;;;;;;7.18;3.10;;;;;;;;;;5038552;28;20203;-84
2021/10/03 12:37:25;;;;;;;5.65;3.40;;;;;;;;;;5038557;28;20064;-85
2021/10/03 12:39:55;;;;;;;4.65;3.45;;;;;;;;;;5036567;28;20075;-86
2021/10/03 12:42:23;;;;;;;5.03;3.20;;;;;;;;;;5042187;28;20076;-86
2021/10/03 12:44:55;;;;;;;6.00;3.30;;;;;;;;;;5042496;28;20083;-86
2021/10/03 12:47:22;;;;;;;3.92;3.03;;;;;;;;;;5040276;28;20076;-84
2021/10/03 12:49:50;;;;;;;4.97;3.30;;;;;;;;;;5043608;28;20053;-85
2021/10/03 12:52:19;;;;;;;7.35;4.05;;;;;;;;;;5038939;28;20487;-86
2021/10/03 12:54:48;;;;;;;5.13;3.13;;;;;;;;;;5035898;28;20097;-85
2021/10/03 12:57:15;;;;;;;9.45;3.30;;;;;;;;;;5037667;28;20065;-85
2021/10/03 12:59:49;;;;;;;4.00;3.17;;;;;;;;;;5035902;28;20053;-86
2021/10/03 13:02:16;;;;;;;6.22;3.33;;;;;;;;;;5038571;28;20057;-86
2021/10/03 13:05:19;;;;;;;4.47;3.72;;;;;;;;;;5041810;28;20053;-86
2021/10/03 13:07:48;;;;;;;6.03;3.38;;;;;;;;;;5046797;28;20080;-86
2021/10/03 13:10:15;;;;;;;6.53;2.95;;;;;;;;;;5040657;28;20076;-86
2021/10/03 13:12:57;;;;;;;5.70;3.08;;;;;;;;;;5039769;28;20041;-86
2021/10/03 13:15:26;;;;;;;4.22;2.88;;;;;;;;;;5038954;28;20072;-85
2021/10/03 13:17:53;;;;;;;4.85;3.38;;;;;;;;;;5044970;28;20037;-86
2021/10/03 13:20:20;;;;;;;4.75;3.42;;;;;;;;;;5049272;28;20041;-85
2021/10/03 13:22:49;;;;;;;4.80;2.97;;;;;;;;;;5045648;28;20084;-85
2021/10/03 13:25:16;;;;;;;5.38;3.28;;;;;;;;;;5038359;28;20045;-86
2021/10/03 13:27:52;;;;;;;6.28;3.38;;;;;;;;;;5038801;28;20049;-85
2021/10/03 13:30:22;;;;;;;4.10;3.20;;;;;;;;;;5049197;28;20092;-86
2021/10/03 13:32:49;;;;;;;5.50;3.08;;;;;;;;;;5043117;28;20130;-85
2021/10/03 13:35:16;;;;;;;4.35;3.20;;;;;;;;;;5038912;28;20098;-86
2021/10/03 13:37:50;;;;;;;7.25;3.10;;;;;;;;;;5035963;28;20125;-85
2021/10/03 13:40:18;;;;;;;6.85;3.55;;;;;;;;;;5032636;28;20445;-85
2021/10/03 13:42:56;;;;;;;6.03;3.20;;;;;;;;;;5034148;28;20107;-85
2021/10/03 13:45:22;;;;;;;5.88;3.67;;;;;;;;;;5035958;28;20404;-85
2021/10/03 13:47:51;;;;;;;5.47;3.40;;;;;;;;;;5034119;28;20045;-85
2021/10/03 13:50:24;;;;;;;5.93;3.25;;;;;;;;;;5034905;28;20256;-85
2021/10/03 13:52:51;;;;;;;6.07;3.50;;;;;;;;;;5033348;28;20539;-85
2021/10/03 13:55:17;;;;;;;5.70;3.25;;;;;;;;;;5033386;28;20069;-85
2021/10/03 13:58:02;;;;;;;4.78;3.22;;;;;;;;;;5034218;28;20061;-85
2021/10/03 14:00:32;;;;;;;6.53;2.83;;;;;;;;;;5033171;28;20249;-85
2021/10/03 14:02:59;;;;;;;5.40;3.38;;;;;;;;;;5032813;28;20087;-84
2021/10/03 14:05:32;;;;;;;6.40;3.45;;;;;;;;;;5048732;28;20041;-84
2021/10/03 14:07:59;;;;;;;9.48;3.60;;;;;;;;;;5034409;28;20204;-84
2021/10/03 14:10:26;;;;;;;6.90;3.60;;;;;;;;;;5035709;28;20060;-84
2021/10/03 14:12:52;;;;;;;5.07;3.38;;;;;;;;;;5032610;28;20049;-85
2021/10/03 14:15:22;;;;;;;6.68;3.25;;;;;;;;;;5032206;28;20272;-85
2021/10/03 14:17:50;;;;;;;5.00;3.13;;;;;;;;;;5036982;28;20320;-85
2021/10/03 14:20:18;;;;;;;5.30;3.40;;;;;;;;;;5038130;28;20072;-85
2021/10/03 14:22:48;;;;;;;5.28;3.20;;;;;;;;;;5037314;28;20436;-85
2021/10/03 14:25:15;;;;;;;4.35;3.15;;;;;;;;;;5048833;28;20217;-85
2021/10/03 14:27:41;;;;;;;4.63;3.15;;;;;;;;;;5031744;28;20148;-85
2021/10/03 14:30:09;;;;;;;7.78;3.38;;;;;;;;;;5035238;28;20048;-85
2021/10/03 14:32:35;;;;;;;4.95;3.20;;;;;;;;;;5034940;28;20096;-85
2021/10/03 14:35:02;;;;;;;5.15;3.33;;;;;;;;;;5035337;28;20245;-85
2021/10/03 14:37:41;;;;;;;4.70;3.55;;;;;;;;;;5035171;28;20053;-85
2021/10/03 14:40:12;;;;;;;5.97;3.47;;;;;;;;;;5036214;28;20099;-84
2021/10/03 14:42:38;;;;;;;5.10;2.95;;;;;;;;;;5037368;28;20230;-86
2021/10/03 14:45:07;;;;;;;5.22;3.42;;;;;;;;;;5033288;28;20077;-84
2021/10/03 14:47:34;;;;;;;6.28;3.40;;;;;;;;;;5032853;28;20045;-84
2021/10/03 14:50:05;;;;;;;4.40;3.35;;;;;;;;;;5031879;28;20049;-85
2021/10/03 14:52:31;;;;;;;5.13;3.55;;;;;;;;;;5027728;28;20444;-86
2021/10/03 14:54:58;;;;;;;6.53;3.20;;;;;;;;;;5036861;28;20051;-83
2021/10/03 14:57:25;;;;;;;7.20;3.78;;;;;;;;;;5056880;28;20048;-84
2021/10/03 14:59:52;;;;;;;4.40;3.08;;;;;;;;;;5056542;28;20075;-85
2021/10/03 15:02:18;;;;;;;5.82;3.38;;;;;;;;;;5049560;28;20418;-84
2021/10/03 15:04:45;;;;;;;6.75;3.60;;;;;;;;;;5036778;28;20103;-84
2021/10/03 15:07:12;;;;;;;4.15;2.88;;;;;;;;;;5035392;28;20056;-85
2021/10/03 15:09:39;;;;;;;4.85;3.15;;;;;;;;;;5037228;28;20536;-85